Flight Track Log - Related Links

Times and Time Zones

All times are in EDT time to prevent confusion due to time zone crossing. See the CTL17 flight status page for this flight to view local times or setup timezone preferences in your user account.

Time Position Orientation Groundspeed Altitude Reporting Facility
EDT Latitude Longitude Course Direction KTS MPH feet Rate Location/Type
Wed 04:52:00 PM 43.3619 -84.0057 160° South  Level Estimated
Wed 04:53:00 PM 43.3366 -83.9838 148° Southeast  Level FlightAware Approximate
Wed 04:54:00 PM 43.3080 -83.9718 160° South  Level Estimated
Wed 04:55:00 PM 43.2807 -83.9553 156° South  Level FlightAware Approximate
Wed 04:56:00 PM 43.2533 -83.9388 156° South  Level FlightAware Approximate
Wed 04:57:00 PM 43.2247 -83.9271 163° South  Level Estimated
Wed 04:58:00 PM 43.1965 -83.9134 161° South  Level FlightAware Approximate
Wed 04:59:00 PM 43.1683 -83.8997 161° South  Level FlightAware Approximate
Wed 05:00:00 PM 43.1401 -83.8861 161° South  Level FlightAware Approximate
Wed 05:00:23 PM 42.9592 -83.8003 160° South 164 189 5,000  Level Cleveland Center
Wed 05:01:00 PM 43.1115 -83.8746 160° South  Level Estimated
Wed 05:01:18 PM 42.9203 -83.7786 158° South 167 192 4,900  Level Cleveland Center
Wed 05:02:00 PM 43.0835 -83.8603 160° South  Level FlightAware Approximate
Wed 05:02:18 PM 42.8772 -83.7536 157° South 165 190 5,000  Level Cleveland Center
Wed 05:03:00 PM 43.0555 -83.8461 160° South  Level FlightAware Approximate
Wed 05:03:19 PM 42.8339 -83.7372 164° South 164 189 5,000  Level Cleveland Center
Wed 05:04:00 PM 43.0275 -83.8318 160° South  Level FlightAware Approximate
Wed 05:04:20 PM 42.7886 -83.7181 163° South 166 191 5,000  Level Cleveland Center
Wed 05:05:00 PM 42.9995 -83.8176 160° South  Level FlightAware Approximate
Wed 05:05:27 PM 42.7369 -83.6956 162° South 169 194 4,900  Level Cleveland Center
Wed 05:06:28 PM 42.6936 -83.6794 165° South 171 197 4,900 52 Level Cleveland Center
Wed 05:07:23 PM 42.6525 -83.6633 164° South 166 191 5,000 52 Climbing Cleveland Center
Wed 05:08:24 PM 42.6092 -83.6442 162° South 163 188 5,000 -443 Level Cleveland Center
Wed 05:09:25 PM 42.5597 -83.6247 164° South 176 203 4,100 -496 Descending Cleveland Center
Wed 05:10:25 PM 42.5142 -83.6086 165° South 171 197 4,000 -50 Descending Cleveland Center
Wed 05:11:26 PM 42.4689 -83.5922 165° South 158 182 4,000 -148 Level Cleveland Center
Wed 05:12:27 PM 42.4236 -83.5678 158° South 176 203 3,700 -344 Descending Cleveland Center
Wed 05:13:28 PM 42.3761 -83.5486 163° South 177 204 3,300 -689 Descending Cleveland Center
Wed 05:14:29 PM 42.3264 -83.5378 171° South 181 208 2,300 -776 Descending Cleveland Center
Wed 05:15:24 PM 42.2828 -83.5244 167° South 158 182 1,800 -545 Descending Cleveland Center
Wed 05:17:00 PM 42.2352 -83.5176 160° South  Level FlightAware Approximate
Wed 05:24:00 PM 42.2333 -83.5167 160° South  Level FlightAware Approximate
Wed 05:25:00 PM 42.2393 -83.5310 160° South  Level Estimated

Login

Don't have an account? Register now (free) for customized features, flight alerts, and more!